createdAt,value
2024-03-05T00:01:05.876Z,91.15
2024-03-05T00:03:43.348Z,90.36
2024-03-05T00:06:11.112Z,90.71
2024-03-05T00:08:38.761Z,91.25
2024-03-05T00:11:22.287Z,91.66
2024-03-05T00:13:49.489Z,91.79
2024-03-05T00:16:21.950Z,91.57
2024-03-05T00:18:49.245Z,91.51
2024-03-05T00:21:21.439Z,91.31
2024-03-05T00:23:53.424Z,91.19
2024-03-05T00:26:31.156Z,90.53
2024-03-05T00:28:58.464Z,90.04
2024-03-05T00:31:26.782Z,89.13
2024-03-05T00:33:54.284Z,88.53
2024-03-05T00:36:22.057Z,88.59
2024-03-05T00:38:54.453Z,88.32
2024-03-05T00:41:26.452Z,88.51
2024-03-05T00:43:55.365Z,88.82
2024-03-05T00:46:28.063Z,88.15
2024-03-05T00:48:59.378Z,87.88
2024-03-05T00:51:31.989Z,87.87
2024-03-05T00:53:59.170Z,87.52
2024-03-05T00:56:28.491Z,87.20
2024-03-05T00:59:01.432Z,88.09
2024-03-05T01:01:29.204Z,87.75
2024-03-05T01:03:56.716Z,88.16
2024-03-05T01:06:24.525Z,88.22
2024-03-05T01:08:51.928Z,88.13
2024-03-05T01:11:19.671Z,88.52
2024-03-05T01:13:51.475Z,88.28
2024-03-05T01:16:25.109Z,88.50
2024-03-05T01:18:52.473Z,88.36
2024-03-05T01:21:24.826Z,89.34
2024-03-05T01:23:52.174Z,89.99
2024-03-05T01:26:19.885Z,90.76
2024-03-05T01:28:47.258Z,91.36
2024-03-05T01:31:21.289Z,91.19
2024-03-05T01:33:48.695Z,90.87
2024-03-05T01:36:16.537Z,90.75
2024-03-05T01:38:43.883Z,90.24
2024-03-05T01:41:11.577Z,90.93
2024-03-05T01:43:38.973Z,90.73
2024-03-05T01:46:11.560Z,90.29
2024-03-05T01:48:43.060Z,89.96
2024-03-05T01:51:12.297Z,90.06
2024-03-05T01:53:39.913Z,91.10
2024-03-05T01:56:12.770Z,90.97
2024-03-05T01:58:41.354Z,91.48
2024-03-05T02:01:15.048Z,91.99
2024-03-05T02:03:43.992Z,91.65
2024-03-05T02:06:16.739Z,91.87
2024-03-05T02:08:44.291Z,91.92
2024-03-05T02:11:13.385Z,91.66
2024-03-05T02:13:41.021Z,91.57
2024-03-05T02:16:08.831Z,91.86
2024-03-05T02:18:43.442Z,91.68
2024-03-05T02:21:21.180Z,91.48
2024-03-05T02:23:52.439Z,90.97
2024-03-05T02:26:24.422Z,90.75
2024-03-05T02:28:53.116Z,91.08
2024-03-05T02:31:26.584Z,90.56
2024-03-05T02:33:58.444Z,90.27
2024-03-05T02:36:30.903Z,89.99
2024-03-05T02:38:58.237Z,90.10
2024-03-05T02:41:36.490Z,90.06
2024-03-05T02:44:04.043Z,90.02
2024-03-05T02:46:35.964Z,90.27
2024-03-05T02:49:03.311Z,90.83
2024-03-05T02:51:36.123Z,90.73
2024-03-05T02:54:03.532Z,90.22
2024-03-05T02:56:35.795Z,90.06
2024-03-05T02:59:05.721Z,90.11
2024-03-05T03:01:36.261Z,90.14
2024-03-05T03:04:03.719Z,90.68
2024-03-05T03:06:35.841Z,90.87
2024-03-05T03:09:05.084Z,91.54
2024-03-05T03:11:33.553Z,91.61
2024-03-05T03:14:00.992Z,92.25
2024-03-05T03:16:28.941Z,92.18
2024-03-05T03:18:56.292Z,92.06
2024-03-05T03:21:24.064Z,92.75
2024-03-05T03:23:52.805Z,92.44
2024-03-05T03:26:21.091Z,92.77
2024-03-05T03:28:48.487Z,92.32
2024-03-05T03:31:18.230Z,92.29
2024-03-05T03:33:45.651Z,92.60
2024-03-05T03:36:22.882Z,92.67
2024-03-05T03:38:50.556Z,92.54
2024-03-05T03:41:20.008Z,92.28
2024-03-05T03:43:47.548Z,92.34
2024-03-05T03:46:16.033Z,92.08
2024-03-05T03:48:43.431Z,92.11
2024-03-05T03:51:11.311Z,93.56
2024-03-05T03:53:38.738Z,92.98
2024-03-05T03:56:07.132Z,93.03
2024-03-05T03:58:35.983Z,93.19
2024-03-05T04:01:04.605Z,92.47
2024-03-05T04:03:32.097Z,92.67
2024-03-05T04:05:59.867Z,93.02
2024-03-05T04:08:27.234Z,93.29
2024-03-05T04:10:57.803Z,93.33
2024-03-05T04:13:25.177Z,93.51
2024-03-05T04:15:55.014Z,93.11
2024-03-05T04:18:22.404Z,93.13
2024-03-05T04:20:50.495Z,93.89
2024-03-05T04:23:18.194Z,93.68
2024-03-05T04:25:45.991Z,93.00
2024-03-05T04:28:13.512Z,93.00
2024-03-05T04:30:41.968Z,93.32
2024-03-05T04:33:10.955Z,93.19
2024-03-05T04:35:38.921Z,93.10
2024-03-05T04:38:09.198Z,93.05
2024-03-05T04:40:37.341Z,93.44
2024-03-05T04:43:05.268Z,92.83
2024-03-05T04:45:38.651Z,93.54
2024-03-05T04:48:06.532Z,92.42
2024-03-05T04:50:36.303Z,92.29
2024-03-05T04:53:03.881Z,92.63
2024-03-05T04:55:32.216Z,91.79
2024-03-05T04:57:59.713Z,92.09
2024-03-05T05:00:31.537Z,91.80
2024-03-05T05:02:59.192Z,92.40
2024-03-05T05:05:27.969Z,92.64
2024-03-05T05:07:59.791Z,92.57
2024-03-05T05:10:27.935Z,93.01
2024-03-05T05:12:55.768Z,93.71
2024-03-05T05:15:29.122Z,93.36
2024-03-05T05:17:56.717Z,93.45
2024-03-05T05:20:24.650Z,92.87
2024-03-05T05:22:53.325Z,92.61
2024-03-05T05:25:22.687Z,92.42
2024-03-05T05:27:50.410Z,92.53
2024-03-05T05:30:19.477Z,92.99
2024-03-05T05:32:47.692Z,93.38
2024-03-05T05:35:17.426Z,93.56
2024-03-05T05:37:44.900Z,93.05
2024-03-05T05:40:13.370Z,93.45
2024-03-05T05:42:43.305Z,93.37
2024-03-05T05:45:11.079Z,93.41
2024-03-05T05:47:39.280Z,92.95
2024-03-05T05:50:08.678Z,91.85
2024-03-05T05:52:36.194Z,91.17
2024-03-05T05:55:04.855Z,91.05
2024-03-05T05:57:32.372Z,91.19
2024-03-05T06:00:02.232Z,90.84
2024-03-05T06:02:30.023Z,91.03
2024-03-05T06:04:58.325Z,91.22
2024-03-05T06:07:25.716Z,91.90
2024-03-05T06:09:54.182Z,92.45
2024-03-05T06:12:24.086Z,92.60
2024-03-05T06:14:53.266Z,92.57
2024-03-05T06:17:22.332Z,92.39
2024-03-05T06:19:50.571Z,92.53
2024-03-05T06:22:23.254Z,92.57
2024-03-05T06:24:54.833Z,93.36
2024-03-05T06:27:22.508Z,92.96
2024-03-05T06:29:50.485Z,92.84
2024-03-05T06:32:17.872Z,93.44
2024-03-05T06:34:47.083Z,93.22
2024-03-05T06:37:16.442Z,92.98
2024-03-05T06:39:44.841Z,93.01
2024-03-05T06:42:12.452Z,92.69
2024-03-05T06:44:42.825Z,93.60
2024-03-05T06:47:13.157Z,93.14
2024-03-05T06:49:41.037Z,92.65
2024-03-05T06:52:10.207Z,92.86
2024-03-05T06:54:38.275Z,91.91
2024-03-05T06:57:06.119Z,91.39
2024-03-05T06:59:34.343Z,91.18
2024-03-05T07:02:02.418Z,90.96
2024-03-05T07:04:30.802Z,90.71
2024-03-05T07:06:58.678Z,90.12
2024-03-05T07:09:29.801Z,89.34
2024-03-05T07:12:00.698Z,89.38
2024-03-05T07:14:28.978Z,88.06
2024-03-05T07:16:56.670Z,87.94
2024-03-05T07:19:24.873Z,87.11
2024-03-05T07:21:53.072Z,86.84
2024-03-05T07:24:21.054Z,86.31
2024-03-05T07:26:56.765Z,85.87
2024-03-05T07:29:32.472Z,86.41
2024-03-05T07:32:00.009Z,87.06
2024-03-05T07:34:27.902Z,85.91
2024-03-05T07:36:58.923Z,84.81
2024-03-05T07:39:26.938Z,85.47
2024-03-05T07:41:55.826Z,84.91
2024-03-05T07:44:23.740Z,84.28
2024-03-05T07:46:51.491Z,84.43
2024-03-05T07:49:22.449Z,84.34
2024-03-05T07:51:52.270Z,84.46
2024-03-05T07:54:20.050Z,82.51
2024-03-05T07:56:48.124Z,83.06
2024-03-05T07:59:17.690Z,83.05
2024-03-05T08:01:48.582Z,82.60
2024-03-05T08:04:16.980Z,83.06
2024-03-05T08:06:44.928Z,80.66
2024-03-05T08:09:13.263Z,81.24
2024-03-05T08:11:41.231Z,81.70
2024-03-05T08:14:09.954Z,81.00
2024-03-05T08:16:40.396Z,81.24
2024-03-05T08:19:09.158Z,82.82
2024-03-05T08:21:36.391Z,79.24
2024-03-05T08:24:07.489Z,79.58
2024-03-05T08:26:35.378Z,80.61
2024-03-05T08:29:03.559Z,78.93
2024-03-05T08:31:31.529Z,77.44
2024-03-05T08:34:01.246Z,76.87
2024-03-05T08:36:28.953Z,77.28
2024-03-05T08:38:59.913Z,75.20
2024-03-05T08:41:27.691Z,76.89
2024-03-05T08:43:56.047Z,77.46
2024-03-05T08:46:29.511Z,76.15
2024-03-05T08:48:57.803Z,75.94
2024-03-05T08:51:27.353Z,77.19
2024-03-05T08:53:56.973Z,76.64
2024-03-05T08:56:24.542Z,75.41
2024-03-05T08:58:54.852Z,72.94
2024-03-05T09:01:22.939Z,72.35
2024-03-05T09:03:51.070Z,73.06
2024-03-05T09:06:22.755Z,74.13
2024-03-05T09:08:52.841Z,71.21
2024-03-05T09:11:22.700Z,72.22
2024-03-05T09:13:50.616Z,73.52
2024-03-05T09:16:19.250Z,69.26
2024-03-05T09:18:48.362Z,72.09
2024-03-05T09:21:16.277Z,72.57
2024-03-05T09:23:45.313Z,69.58
2024-03-05T09:26:14.590Z,70.11
2024-03-05T09:28:42.967Z,68.71
2024-03-05T09:31:10.659Z,70.97
2024-03-05T09:33:38.384Z,68.49
2024-03-05T09:36:07.040Z,70.22
2024-03-05T09:38:35.401Z,68.91
2024-03-05T09:41:06.725Z,70.58
2024-03-05T09:43:41.588Z,69.78
2024-03-05T09:46:10.121Z,71.19
2024-03-05T09:48:38.674Z,70.08
2024-03-05T09:51:09.496Z,68.81
2024-03-05T09:53:38.608Z,68.19
2024-03-05T09:56:07.614Z,66.09
2024-03-05T09:58:39.131Z,65.69
2024-03-05T10:01:08.088Z,67.18
2024-03-05T10:03:38.134Z,68.62
2024-03-05T10:06:07.892Z,65.22
2024-03-05T10:08:36.751Z,65.99
2024-03-05T10:11:05.726Z,67.46
2024-03-05T10:13:37.205Z,65.88
2024-03-05T10:16:15.298Z,62.07
2024-03-05T10:18:43.304Z,61.41
2024-03-05T10:21:17.645Z,61.30
2024-03-05T10:23:46.642Z,60.91
2024-03-05T10:26:24.445Z,61.22
2024-03-05T10:28:56.498Z,61.83
2024-03-05T10:31:25.587Z,61.40
2024-03-05T10:33:55.322Z,60.68
2024-03-05T10:36:30.202Z,62.96
2024-03-05T10:39:01.966Z,62.69
2024-03-05T10:41:39.289Z,62.52
2024-03-05T10:44:19.400Z,62.39
2024-03-05T10:46:48.490Z,60.76
2024-03-05T10:49:17.512Z,62.31
2024-03-05T10:51:47.024Z,61.82
2024-03-05T10:54:15.820Z,61.21
2024-03-05T10:56:48.889Z,61.01
2024-03-05T10:59:19.043Z,60.35
2024-03-05T11:01:50.075Z,61.21
2024-03-05T11:04:25.838Z,60.43
2024-03-05T11:06:56.837Z,59.99
2024-03-05T11:09:25.367Z,61.67
2024-03-05T11:11:58.516Z,60.75
2024-03-05T11:14:28.944Z,62.16
2024-03-05T11:17:04.528Z,63.89
2024-03-05T11:19:32.981Z,65.69
2024-03-05T11:22:00.668Z,66.82
2024-03-05T11:24:28.447Z,66.89
2024-03-05T11:27:02.997Z,68.37
2024-03-05T11:29:38.611Z,69.15
2024-03-05T11:32:11.305Z,69.26
2024-03-05T11:34:46.616Z,68.74
2024-03-05T11:37:17.000Z,69.88
2024-03-05T11:39:47.718Z,69.21
2024-03-05T11:42:18.797Z,70.24
2024-03-05T11:44:57.881Z,70.48
2024-03-05T11:47:26.343Z,69.96
2024-03-05T11:49:55.438Z,70.13
2024-03-05T11:52:25.423Z,70.37
2024-03-05T11:55:01.252Z,69.62
2024-03-05T11:57:29.244Z,69.10
2024-03-05T11:59:59.158Z,69.04
2024-03-05T12:02:26.865Z,69.20
2024-03-05T12:05:03.949Z,70.07
2024-03-05T12:07:31.501Z,70.60
2024-03-05T12:09:59.565Z,70.56
2024-03-05T12:12:27.801Z,69.99
2024-03-05T12:14:56.838Z,69.83
2024-03-05T12:17:37.596Z,70.78
2024-03-05T12:20:10.504Z,70.23
2024-03-05T12:22:39.227Z,70.87
2024-03-05T12:25:15.723Z,70.73
2024-03-05T12:27:51.081Z,70.49
2024-03-05T12:30:35.084Z,71.43
2024-03-05T12:33:07.643Z,71.39
2024-03-05T12:35:37.576Z,71.82
2024-03-05T12:38:25.156Z,72.75
2024-03-05T12:41:04.428Z,72.36
2024-03-05T12:43:32.516Z,73.30
2024-03-05T12:46:01.110Z,73.24
2024-03-05T12:48:30.001Z,71.07
2024-03-05T12:51:01.035Z,70.89
2024-03-05T12:53:28.671Z,72.32
2024-03-05T12:56:03.261Z,70.09
2024-03-05T12:58:42.527Z,70.21
2024-03-05T13:01:10.930Z,68.88
2024-03-05T13:03:39.986Z,70.83
2024-03-05T13:06:10.996Z,68.95
2024-03-05T13:08:39.690Z,68.79
2024-03-05T13:11:08.086Z,68.66
2024-03-05T13:13:35.652Z,68.66
2024-03-05T13:16:04.347Z,68.54
2024-03-05T13:18:31.877Z,68.29
2024-03-05T13:21:01.320Z,67.96
2024-03-05T13:23:30.993Z,68.27
2024-03-05T13:25:59.812Z,68.42
2024-03-05T13:28:30.320Z,68.11
2024-03-05T13:30:58.685Z,67.81
2024-03-05T13:33:27.030Z,69.17
2024-03-05T13:35:54.756Z,67.81
2024-03-05T13:38:24.476Z,66.45
2024-03-05T13:40:52.672Z,66.86
2024-03-05T13:43:20.872Z,67.27
2024-03-05T13:45:49.117Z,66.33
2024-03-05T13:48:17.277Z,66.44
2024-03-05T13:50:44.632Z,66.40
2024-03-05T13:53:15.337Z,66.20
2024-03-05T13:55:47.746Z,64.77
2024-03-05T13:58:15.791Z,64.62
2024-03-05T14:00:43.637Z,65.92
2024-03-05T14:03:13.537Z,65.01
2024-03-05T14:05:41.645Z,65.72
2024-03-05T14:08:10.484Z,65.49
2024-03-05T14:10:38.652Z,64.21
2024-03-05T14:13:09.081Z,64.65
2024-03-05T14:15:36.880Z,64.95
2024-03-05T14:18:08.099Z,65.28
2024-03-05T14:20:36.396Z,66.01
2024-03-05T14:23:12.574Z,65.15
2024-03-05T14:25:50.950Z,65.51
2024-03-05T14:28:24.507Z,66.00
2024-03-05T14:31:00.604Z,66.98
2024-03-05T14:33:39.517Z,65.51
2024-03-05T14:36:28.738Z,65.35
2024-03-05T14:39:01.710Z,65.00
2024-03-05T14:41:44.323Z,65.77
2024-03-05T14:44:40.390Z,65.19
2024-03-05T14:47:13.573Z,66.77
2024-03-05T14:49:45.961Z,65.16
2024-03-05T14:52:19.448Z,66.64
2024-03-05T14:54:51.845Z,65.69
2024-03-05T14:57:22.651Z,65.23
2024-03-05T15:00:10.839Z,63.94
2024-03-05T15:02:42.655Z,65.37
2024-03-05T15:05:23.053Z,64.72
2024-03-05T15:08:11.062Z,66.77
2024-03-05T15:10:44.672Z,65.15
2024-03-05T15:13:14.437Z,64.74
2024-03-05T15:15:57.824Z,65.26
2024-03-05T15:18:40.593Z,64.97
2024-03-05T15:21:38.595Z,64.91
2024-03-05T15:24:16.585Z,65.74
2024-03-05T15:27:04.345Z,64.43
2024-03-05T15:29:47.467Z,64.43
2024-03-05T15:32:23.631Z,65.92
2024-03-05T15:34:56.330Z,65.63
2024-03-05T15:37:25.288Z,65.51
2024-03-05T15:39:52.902Z,65.55
2024-03-05T15:42:21.073Z,64.41
2024-03-05T15:44:48.486Z,65.07
2024-03-05T15:47:16.516Z,65.02
2024-03-05T15:49:59.594Z,65.27
2024-03-05T15:52:31.556Z,65.68
2024-03-05T15:54:59.326Z,65.04
2024-03-05T15:57:33.126Z,65.81
2024-03-05T16:00:01.643Z,65.67
2024-03-05T16:02:29.820Z,66.44
2024-03-05T16:05:17.826Z,66.83
2024-03-05T16:07:57.026Z,67.82
2024-03-05T16:10:35.587Z,67.81
2024-03-05T16:13:11.515Z,68.08
2024-03-05T16:15:38.912Z,67.39
2024-03-05T16:18:08.387Z,67.77
2024-03-05T16:20:41.005Z,68.10
2024-03-05T16:23:09.480Z,67.63
2024-03-05T16:25:41.415Z,67.12
2024-03-05T16:28:11.011Z,67.65
2024-03-05T16:30:39.462Z,67.33
2024-03-05T16:33:07.974Z,67.37
2024-03-05T16:35:40.981Z,66.92
2024-03-05T16:38:13.136Z,67.16
2024-03-05T16:40:40.992Z,67.65
2024-03-05T16:43:08.673Z,67.00
2024-03-05T16:45:37.059Z,67.06
2024-03-05T16:48:11.724Z,66.30
2024-03-05T16:50:44.987Z,65.85
2024-03-05T16:53:12.815Z,65.83
2024-03-05T16:55:40.201Z,66.12
2024-03-05T16:58:20.451Z,66.49
2024-03-05T17:00:55.153Z,67.55
2024-03-05T17:03:27.024Z,67.61
2024-03-05T17:05:59.981Z,68.28
2024-03-05T17:08:31.989Z,68.09
2024-03-05T17:10:59.530Z,68.17
2024-03-05T17:13:33.223Z,67.96
2024-03-05T17:16:01.588Z,68.38
2024-03-05T17:18:29.951Z,68.77
2024-03-05T17:20:59.546Z,68.86
2024-03-05T17:23:32.413Z,69.53
2024-03-05T17:26:13.793Z,68.83
2024-03-05T17:28:47.493Z,68.84
2024-03-05T17:31:18.692Z,68.76
2024-03-05T17:34:04.651Z,68.59
2024-03-05T17:36:51.440Z,68.81
2024-03-05T17:39:21.378Z,68.89
2024-03-05T17:41:53.372Z,69.02
2024-03-05T17:44:23.015Z,70.07
2024-03-05T17:46:56.149Z,70.27
2024-03-05T17:49:35.136Z,71.22
2024-03-05T17:52:05.718Z,70.75
2024-03-05T17:54:33.796Z,70.47
2024-03-05T17:57:01.172Z,70.14
2024-03-05T17:59:33.973Z,70.16
2024-03-05T18:02:01.291Z,70.16
2024-03-05T18:04:42.877Z,70.40
2024-03-05T18:07:14.722Z,70.36
2024-03-05T18:09:47.736Z,70.55
2024-03-05T18:12:23.903Z,70.90
2024-03-05T18:15:11.054Z,70.89
2024-03-05T18:17:45.381Z,70.75
2024-03-05T18:20:22.374Z,70.66
2024-03-05T18:22:51.393Z,70.72
2024-03-05T18:25:24.871Z,70.75
2024-03-05T18:28:10.208Z,70.41
2024-03-05T18:30:40.480Z,70.44
2024-03-05T18:33:21.364Z,70.51
2024-03-05T18:39:04.653Z,71.17
2024-03-05T18:41:47.939Z,71.72
2024-03-05T18:44:32.011Z,71.63
2024-03-05T18:50:10.130Z,70.93
2024-03-05T18:52:51.027Z,71.74
2024-03-05T18:55:33.119Z,71.94
2024-03-05T18:58:10.496Z,72.99
2024-03-05T19:00:57.105Z,73.07
2024-03-05T19:03:29.667Z,73.12
2024-03-05T19:06:03.567Z,72.96
2024-03-05T19:08:53.807Z,73.35
2024-03-05T19:11:28.978Z,73.97
2024-03-05T19:14:08.226Z,74.67
2024-03-05T19:16:37.692Z,75.70
2024-03-05T19:19:36.687Z,76.24
2024-03-05T19:22:04.515Z,75.74
2024-03-05T19:24:41.231Z,75.99
2024-03-05T19:27:16.188Z,76.01
2024-03-05T19:29:44.726Z,76.21
2024-03-05T19:32:22.413Z,76.91
2024-03-05T19:34:50.632Z,76.32
2024-03-05T19:37:36.126Z,75.29
2024-03-05T19:40:10.990Z,75.27
2024-03-05T19:42:46.911Z,74.86
2024-03-05T19:45:21.185Z,74.69
2024-03-05T19:47:54.863Z,75.46
2024-03-05T19:50:29.474Z,75.75
2024-03-05T19:53:02.518Z,75.63
2024-03-05T19:55:43.531Z,75.09
2024-03-05T19:58:22.701Z,74.34
2024-03-05T20:01:05.684Z,73.82
2024-03-05T20:03:33.720Z,73.94
2024-03-05T20:06:15.187Z,73.52
2024-03-05T20:08:45.216Z,74.15
2024-03-05T20:11:24.143Z,73.29
2024-03-05T20:13:58.647Z,73.56
2024-03-05T20:16:27.582Z,73.11
2024-03-05T20:18:55.203Z,72.87
2024-03-05T20:21:23.029Z,73.81
2024-03-05T20:23:50.549Z,73.79
2024-03-05T20:26:23.185Z,73.92
2024-03-05T20:28:51.325Z,74.60
2024-03-05T20:31:20.677Z,74.27
2024-03-05T20:33:48.622Z,74.40
2024-03-05T20:36:25.391Z,75.01
2024-03-05T20:38:55.966Z,75.53
2024-03-05T20:41:24.642Z,75.66
2024-03-05T20:43:58.082Z,75.80
2024-03-05T20:46:31.440Z,76.67
2024-03-05T20:48:59.415Z,77.24
2024-03-05T20:51:27.413Z,77.50
2024-03-05T20:54:00.495Z,76.80
2024-03-05T20:56:33.126Z,76.73
2024-03-05T20:59:03.247Z,76.36
2024-03-05T21:01:41.558Z,76.63
2024-03-05T21:04:18.453Z,76.45
2024-03-05T21:06:46.466Z,76.46
2024-03-05T21:09:14.485Z,75.63
2024-03-05T21:11:42.588Z,76.11
2024-03-05T21:14:10.181Z,76.44
2024-03-05T21:16:45.558Z,76.84
2024-03-05T21:19:13.350Z,76.82
2024-03-05T21:21:49.393Z,77.44
2024-03-05T21:24:17.167Z,77.83
2024-03-05T21:29:20.928Z,76.77
2024-03-05T21:31:58.458Z,76.50
2024-03-05T21:34:26.158Z,76.47
2024-03-05T21:36:54.103Z,76.57
2024-03-05T21:39:26.485Z,77.05
2024-03-05T21:41:59.151Z,77.31
2024-03-05T21:44:34.792Z,76.76
2024-03-05T21:47:10.804Z,77.17
2024-03-05T21:49:39.512Z,77.20
2024-03-05T21:52:15.283Z,77.07
2024-03-05T21:54:45.878Z,77.08
2024-03-05T21:57:18.002Z,76.64
2024-03-05T21:59:45.460Z,76.62
2024-03-05T22:02:30.461Z,77.16
2024-03-05T22:05:02.542Z,77.16
2024-03-05T22:07:35.496Z,76.93
2024-03-05T22:10:03.807Z,77.88
2024-03-05T22:12:31.520Z,78.27
2024-03-05T22:15:03.461Z,77.20
2024-03-05T22:17:33.019Z,77.48
2024-03-05T22:20:01.099Z,77.12
2024-03-05T22:22:29.192Z,76.96
2024-03-05T22:24:57.727Z,77.05
2024-03-05T22:27:30.427Z,76.99
2024-03-05T22:29:57.921Z,76.92
2024-03-05T22:32:26.196Z,76.30
2024-03-05T22:34:55.933Z,75.83
2024-03-05T22:37:24.248Z,75.61
2024-03-05T22:39:56.696Z,75.47
2024-03-05T22:42:24.625Z,76.07
2024-03-05T22:44:52.110Z,75.88
2024-03-05T22:47:19.979Z,76.23
2024-03-05T22:49:49.240Z,75.87
2024-03-05T22:52:22.961Z,75.67
2024-03-05T22:54:50.404Z,75.88
2024-03-05T22:57:24.015Z,76.03
2024-03-05T22:59:51.420Z,75.80
2024-03-05T23:02:19.490Z,75.96
2024-03-05T23:04:47.043Z,75.53
2024-03-05T23:07:24.065Z,76.10
2024-03-05T23:09:51.444Z,77.96
2024-03-05T23:12:19.302Z,78.58
2024-03-05T23:14:46.769Z,78.56
2024-03-05T23:17:19.238Z,77.74
2024-03-05T23:19:46.827Z,77.64
2024-03-05T23:22:14.753Z,77.71
2024-03-05T23:24:47.000Z,78.12
2024-03-05T23:27:15.183Z,78.87
2024-03-05T23:29:42.650Z,78.74
2024-03-05T23:32:17.810Z,78.67
2024-03-05T23:34:45.263Z,78.43
2024-03-05T23:37:18.334Z,79.29
2024-03-05T23:39:47.173Z,78.70
2024-03-05T23:42:15.225Z,78.77
2024-03-05T23:44:42.680Z,79.00
2024-03-05T23:47:15.300Z,78.62
2024-03-05T23:49:50.513Z,78.80
2024-03-05T23:52:18.351Z,78.12
2024-03-05T23:54:47.570Z,77.69
2024-03-05T23:57:22.953Z,77.80
2024-03-05T23:59:53.252Z,78.41
